sensor_id;sensor_type;location;lat;lon;timestamp;temperature;humidity
4896;DHT22;2463;49.948;8.472;2023-06-14T00:01:15;18.80;99.90
4896;DHT22;2463;49.948;8.472;2023-06-14T00:03:42;18.80;99.90
4896;DHT22;2463;49.948;8.472;2023-06-14T00:06:09;18.80;99.40
4896;DHT22;2463;49.948;8.472;2023-06-14T00:08:35;18.80;99.50
4896;DHT22;2463;49.948;8.472;2023-06-14T00:11:02;18.80;99.20
4896;DHT22;2463;49.948;8.472;2023-06-14T00:13:29;18.80;99.90
4896;DHT22;2463;49.948;8.472;2023-06-14T00:15:55;18.80;99.90
4896;DHT22;2463;49.948;8.472;2023-06-14T00:18:23;18.80;99.90
4896;DHT22;2463;49.948;8.472;2023-06-14T00:20:56;18.90;99.90
4896;DHT22;2463;49.948;8.472;2023-06-14T00:23:22;18.80;99.90
4896;DHT22;2463;49.948;8.472;2023-06-14T00:25:49;18.90;99.90
4896;DHT22;2463;49.948;8.472;2023-06-14T00:28:16;18.80;99.90
4896;DHT22;2463;49.948;8.472;2023-06-14T00:30:43;18.80;99.90
4896;DHT22;2463;49.948;8.472;2023-06-14T00:33:13;18.80;99.90
4896;DHT22;2463;49.948;8.472;2023-06-14T00:35:40;18.80;99.90
4896;DHT22;2463;49.948;8.472;2023-06-14T00:38:06;18.70;99.90
4896;DHT22;2463;49.948;8.472;2023-06-14T00:40:33;18.60;99.90
4896;DHT22;2463;49.948;8.472;2023-06-14T00:43:01;18.70;99.90
4896;DHT22;2463;49.948;8.472;2023-06-14T00:45:27;18.70;99.90
4896;DHT22;2463;49.948;8.472;2023-06-14T00:47:54;18.70;99.90
4896;DHT22;2463;49.948;8.472;2023-06-14T00:50:22;18.70;99.90
4896;DHT22;2463;49.948;8.472;2023-06-14T00:52:50;18.70;99.90
4896;DHT22;2463;49.948;8.472;2023-06-14T00:55:17;18.70;99.90
4896;DHT22;2463;49.948;8.472;2023-06-14T00:57:44;18.70;99.90
4896;DHT22;2463;49.948;8.472;2023-06-14T01:00:12;18.70;99.90
4896;DHT22;2463;49.948;8.472;2023-06-14T01:02:39;18.70;99.90
4896;DHT22;2463;49.948;8.472;2023-06-14T01:05:08;18.70;99.90
4896;DHT22;2463;49.948;8.472;2023-06-14T01:08:02;18.70;99.90
4896;DHT22;2463;49.948;8.472;2023-06-14T01:13:11;18.70;99.90
4896;DHT22;2463;49.948;8.472;2023-06-14T01:15:41;18.70;99.80
4896;DHT22;2463;49.948;8.472;2023-06-14T01:18:09;18.70;99.60
4896;DHT22;2463;49.948;8.472;2023-06-14T01:20:45;18.60;99.10
4896;DHT22;2463;49.948;8.472;2023-06-14T01:23:20;18.60;99.40
4896;DHT22;2463;49.948;8.472;2023-06-14T01:25:48;18.60;99.60
4896;DHT22;2463;49.948;8.472;2023-06-14T01:28:20;18.50;99.40
4896;DHT22;2463;49.948;8.472;2023-06-14T01:30:50;18.50;99.30
4896;DHT22;2463;49.948;8.472;2023-06-14T01:33:20;18.50;99.80
4896;DHT22;2463;49.948;8.472;2023-06-14T01:35:50;18.50;99.90
4896;DHT22;2463;49.948;8.472;2023-06-14T01:38:19;18.50;99.80
4896;DHT22;2463;49.948;8.472;2023-06-14T01:40:47;18.50;99.60
4896;DHT22;2463;49.948;8.472;2023-06-14T01:43:15;18.50;99.90
4896;DHT22;2463;49.948;8.472;2023-06-14T01:45:42;18.50;99.70
4896;DHT22;2463;49.948;8.472;2023-06-14T01:48:11;18.50;99.50
4896;DHT22;2463;49.948;8.472;2023-06-14T01:50:39;18.40;99.40
4896;DHT22;2463;49.948;8.472;2023-06-14T01:53:09;18.40;99.20
4896;DHT22;2463;49.948;8.472;2023-06-14T01:55:37;18.40;99.10
4896;DHT22;2463;49.948;8.472;2023-06-14T01:58:05;18.30;99.00
4896;DHT22;2463;49.948;8.472;2023-06-14T02:00:32;18.30;99.10
4896;DHT22;2463;49.948;8.472;2023-06-14T02:02:58;18.30;99.00
4896;DHT22;2463;49.948;8.472;2023-06-14T02:05:26;18.30;99.10
4896;DHT22;2463;49.948;8.472;2023-06-14T02:07:53;18.30;99.00
4896;DHT22;2463;49.948;8.472;2023-06-14T02:10:20;18.20;98.80
4896;DHT22;2463;49.948;8.472;2023-06-14T02:12:47;18.20;98.60
4896;DHT22;2463;49.948;8.472;2023-06-14T02:15:14;18.20;98.50
4896;DHT22;2463;49.948;8.472;2023-06-14T02:17:44;18.10;98.20
4896;DHT22;2463;49.948;8.472;2023-06-14T02:20:11;18.00;98.00
4896;DHT22;2463;49.948;8.472;2023-06-14T02:22:39;17.90;97.70
4896;DHT22;2463;49.948;8.472;2023-06-14T02:25:06;17.90;97.50
4896;DHT22;2463;49.948;8.472;2023-06-14T02:27:34;17.80;97.20
4896;DHT22;2463;49.948;8.472;2023-06-14T02:30:01;17.70;97.30
4896;DHT22;2463;49.948;8.472;2023-06-14T02:32:28;17.60;97.30
4896;DHT22;2463;49.948;8.472;2023-06-14T02:34:55;17.50;97.20
4896;DHT22;2463;49.948;8.472;2023-06-14T02:37:22;17.40;97.50
4896;DHT22;2463;49.948;8.472;2023-06-14T02:39:49;17.30;97.80
4896;DHT22;2463;49.948;8.472;2023-06-14T02:42:15;17.30;98.30
4896;DHT22;2463;49.948;8.472;2023-06-14T02:44:42;17.10;98.90
4896;DHT22;2463;49.948;8.472;2023-06-14T02:47:09;17.10;99.40
4896;DHT22;2463;49.948;8.472;2023-06-14T02:49:36;17.00;99.80
4896;DHT22;2463;49.948;8.472;2023-06-14T02:52:03;16.90;99.90
4896;DHT22;2463;49.948;8.472;2023-06-14T02:54:30;16.80;99.90
4896;DHT22;2463;49.948;8.472;2023-06-14T02:56:57;16.70;99.90
4896;DHT22;2463;49.948;8.472;2023-06-14T02:59:23;16.70;99.90
4896;DHT22;2463;49.948;8.472;2023-06-14T03:01:51;16.70;99.90
4896;DHT22;2463;49.948;8.472;2023-06-14T03:04:18;16.60;99.90
4896;DHT22;2463;49.948;8.472;2023-06-14T03:06:45;16.50;99.90
4896;DHT22;2463;49.948;8.472;2023-06-14T03:09:16;16.40;99.90
4896;DHT22;2463;49.948;8.472;2023-06-14T03:11:43;16.50;99.90
4896;DHT22;2463;49.948;8.472;2023-06-14T03:14:10;16.30;99.90
4896;DHT22;2463;49.948;8.472;2023-06-14T03:16:37;16.20;99.90
4896;DHT22;2463;49.948;8.472;2023-06-14T03:19:04;16.20;99.90
4896;DHT22;2463;49.948;8.472;2023-06-14T03:21:31;16.20;99.90
4896;DHT22;2463;49.948;8.472;2023-06-14T03:23:58;16.10;99.90
4896;DHT22;2463;49.948;8.472;2023-06-14T03:26:26;16.10;99.90
4896;DHT22;2463;49.948;8.472;2023-06-14T03:28:52;16.00;99.90
4896;DHT22;2463;49.948;8.472;2023-06-14T03:31:19;16.10;99.90
4896;DHT22;2463;49.948;8.472;2023-06-14T03:33:46;16.00;99.90
4896;DHT22;2463;49.948;8.472;2023-06-14T03:36:13;16.00;99.90
4896;DHT22;2463;49.948;8.472;2023-06-14T03:38:39;15.90;99.90
4896;DHT22;2463;49.948;8.472;2023-06-14T03:41:06;15.90;99.90
4896;DHT22;2463;49.948;8.472;2023-06-14T03:43:33;15.90;99.90
4896;DHT22;2463;49.948;8.472;2023-06-14T03:46:00;15.90;99.90
4896;DHT22;2463;49.948;8.472;2023-06-14T03:48:27;15.80;99.90
4896;DHT22;2463;49.948;8.472;2023-06-14T03:50:54;15.80;99.90
4896;DHT22;2463;49.948;8.472;2023-06-14T03:53:24;15.80;99.90
4896;DHT22;2463;49.948;8.472;2023-06-14T03:55:51;15.80;99.90
4896;DHT22;2463;49.948;8.472;2023-06-14T03:58:22;15.90;99.90
4896;DHT22;2463;49.948;8.472;2023-06-14T04:00:49;15.90;99.90
4896;DHT22;2463;49.948;8.472;2023-06-14T04:03:16;16.00;99.90
4896;DHT22;2463;49.948;8.472;2023-06-14T04:05:43;16.00;99.90
4896;DHT22;2463;49.948;8.472;2023-06-14T04:08:11;16.00;99.90
4896;DHT22;2463;49.948;8.472;2023-06-14T04:10:41;16.00;99.90
4896;DHT22;2463;49.948;8.472;2023-06-14T04:13:07;16.10;99.90
4896;DHT22;2463;49.948;8.472;2023-06-14T04:15:34;16.20;99.90
4896;DHT22;2463;49.948;8.472;2023-06-14T04:18:02;16.20;99.90
4896;DHT22;2463;49.948;8.472;2023-06-14T04:20:29;16.40;99.90
4896;DHT22;2463;49.948;8.472;2023-06-14T04:22:57;16.50;99.90
4896;DHT22;2463;49.948;8.472;2023-06-14T04:25:24;16.50;99.90
4896;DHT22;2463;49.948;8.472;2023-06-14T04:27:52;16.60;99.90
4896;DHT22;2463;49.948;8.472;2023-06-14T04:30:20;16.70;99.90
4896;DHT22;2463;49.948;8.472;2023-06-14T04:32:47;16.80;99.90
4896;DHT22;2463;49.948;8.472;2023-06-14T04:35:16;16.90;99.90
4896;DHT22;2463;49.948;8.472;2023-06-14T04:37:44;16.90;99.90
4896;DHT22;2463;49.948;8.472;2023-06-14T04:40:11;17.00;99.90
4896;DHT22;2463;49.948;8.472;2023-06-14T04:42:38;17.10;99.90
4896;DHT22;2463;49.948;8.472;2023-06-14T04:45:07;17.20;99.90
4896;DHT22;2463;49.948;8.472;2023-06-14T04:47:35;17.20;99.90
4896;DHT22;2463;49.948;8.472;2023-06-14T04:50:04;17.30;99.90
4896;DHT22;2463;49.948;8.472;2023-06-14T04:52:31;17.40;99.90
4896;DHT22;2463;49.948;8.472;2023-06-14T04:54:58;17.50;99.90
4896;DHT22;2463;49.948;8.472;2023-06-14T04:57:25;17.60;99.90
4896;DHT22;2463;49.948;8.472;2023-06-14T04:59:52;17.60;99.90
4896;DHT22;2463;49.948;8.472;2023-06-14T05:02:25;17.60;99.90
4896;DHT22;2463;49.948;8.472;2023-06-14T05:04:53;17.70;99.90
4896;DHT22;2463;49.948;8.472;2023-06-14T05:07:20;17.80;99.90
4896;DHT22;2463;49.948;8.472;2023-06-14T05:09:46;17.80;99.90
4896;DHT22;2463;49.948;8.472;2023-06-14T05:12:13;17.80;99.90
4896;DHT22;2463;49.948;8.472;2023-06-14T05:14:40;17.90;99.90
4896;DHT22;2463;49.948;8.472;2023-06-14T05:17:06;17.90;99.90
4896;DHT22;2463;49.948;8.472;2023-06-14T05:19:33;18.00;99.90
4896;DHT22;2463;49.948;8.472;2023-06-14T05:22:00;18.00;99.90
4896;DHT22;2463;49.948;8.472;2023-06-14T05:24:29;18.10;99.90
4896;DHT22;2463;49.948;8.472;2023-06-14T05:26:57;18.20;99.90
4896;DHT22;2463;49.948;8.472;2023-06-14T05:29:24;18.20;99.90
4896;DHT22;2463;49.948;8.472;2023-06-14T05:31:53;18.30;99.90
4896;DHT22;2463;49.948;8.472;2023-06-14T05:34:20;18.20;99.90
4896;DHT22;2463;49.948;8.472;2023-06-14T05:36:47;18.40;99.90
4896;DHT22;2463;49.948;8.472;2023-06-14T05:39:13;18.40;99.90
4896;DHT22;2463;49.948;8.472;2023-06-14T05:41:40;18.40;99.90
4896;DHT22;2463;49.948;8.472;2023-06-14T05:44:08;18.40;99.90
4896;DHT22;2463;49.948;8.472;2023-06-14T05:46:35;18.40;99.90
4896;DHT22;2463;49.948;8.472;2023-06-14T05:49:02;18.40;99.90
4896;DHT22;2463;49.948;8.472;2023-06-14T05:51:29;18.40;99.90
4896;DHT22;2463;49.948;8.472;2023-06-14T05:53:55;18.50;99.90
4896;DHT22;2463;49.948;8.472;2023-06-14T05:56:22;18.50;99.90
4896;DHT22;2463;49.948;8.472;2023-06-14T05:58:49;18.60;99.90
4896;DHT22;2463;49.948;8.472;2023-06-14T06:01:17;18.60;99.90
4896;DHT22;2463;49.948;8.472;2023-06-14T06:03:43;18.80;99.90
4896;DHT22;2463;49.948;8.472;2023-06-14T06:06:14;18.80;99.90
4896;DHT22;2463;49.948;8.472;2023-06-14T06:08:41;19.00;99.90
4896;DHT22;2463;49.948;8.472;2023-06-14T06:11:09;19.10;99.90
4896;DHT22;2463;49.948;8.472;2023-06-14T06:13:35;19.20;99.90
4896;DHT22;2463;49.948;8.472;2023-06-14T06:16:03;19.30;99.90
4896;DHT22;2463;49.948;8.472;2023-06-14T06:18:30;19.40;99.90
4896;DHT22;2463;49.948;8.472;2023-06-14T06:20:57;19.60;99.90
4896;DHT22;2463;49.948;8.472;2023-06-14T06:23:24;19.70;99.90
4896;DHT22;2463;49.948;8.472;2023-06-14T06:25:51;19.90;99.90
4896;DHT22;2463;49.948;8.472;2023-06-14T06:28:18;20.10;99.90
4896;DHT22;2463;49.948;8.472;2023-06-14T06:30:45;20.40;99.90
4896;DHT22;2463;49.948;8.472;2023-06-14T06:33:12;20.90;99.90
4896;DHT22;2463;49.948;8.472;2023-06-14T06:35:40;21.50;99.90
4896;DHT22;2463;49.948;8.472;2023-06-14T06:38:07;22.60;99.90
4896;DHT22;2463;49.948;8.472;2023-06-14T06:40:35;23.50;98.00
4896;DHT22;2463;49.948;8.472;2023-06-14T06:43:02;24.50;97.70
4896;DHT22;2463;49.948;8.472;2023-06-14T06:45:29;25.60;95.90
4896;DHT22;2463;49.948;8.472;2023-06-14T06:47:57;26.40;93.80
4896;DHT22;2463;49.948;8.472;2023-06-14T06:50:23;27.40;92.60
4896;DHT22;2463;49.948;8.472;2023-06-14T06:52:51;28.30;88.90
4896;DHT22;2463;49.948;8.472;2023-06-14T06:55:18;28.90;87.80
4896;DHT22;2463;49.948;8.472;2023-06-14T06:57:45;29.80;84.40
4896;DHT22;2463;49.948;8.472;2023-06-14T07:00:12;30.60;81.20
4896;DHT22;2463;49.948;8.472;2023-06-14T07:02:40;31.50;80.50
4896;DHT22;2463;49.948;8.472;2023-06-14T07:05:07;31.80;78.00
4896;DHT22;2463;49.948;8.472;2023-06-14T07:07:34;32.00;75.20
4896;DHT22;2463;49.948;8.472;2023-06-14T07:10:01;31.90;73.30
4896;DHT22;2463;49.948;8.472;2023-06-14T07:12:31;31.80;72.10
4896;DHT22;2463;49.948;8.472;2023-06-14T07:15:00;31.70;71.70
4896;DHT22;2463;49.948;8.472;2023-06-14T07:17:27;31.20;72.30
4896;DHT22;2463;49.948;8.472;2023-06-14T07:19:54;30.80;70.30
4896;DHT22;2463;49.948;8.472;2023-06-14T07:22:20;30.40;69.80
4896;DHT22;2463;49.948;8.472;2023-06-14T07:24:47;30.20;71.50
4896;DHT22;2463;49.948;8.472;2023-06-14T07:27:14;30.00;71.80
4896;DHT22;2463;49.948;8.472;2023-06-14T07:29:41;29.60;72.60
4896;DHT22;2463;49.948;8.472;2023-06-14T07:32:08;29.10;72.50
4896;DHT22;2463;49.948;8.472;2023-06-14T07:34:34;28.70;74.50
4896;DHT22;2463;49.948;8.472;2023-06-14T07:37:01;28.50;73.40
4896;DHT22;2463;49.948;8.472;2023-06-14T07:39:28;28.20;74.30
4896;DHT22;2463;49.948;8.472;2023-06-14T07:41:56;28.10;74.30
4896;DHT22;2463;49.948;8.472;2023-06-14T07:44:23;27.90;72.70
4896;DHT22;2463;49.948;8.472;2023-06-14T07:46:49;27.80;73.00
4896;DHT22;2463;49.948;8.472;2023-06-14T07:49:16;27.70;74.70
4896;DHT22;2463;49.948;8.472;2023-06-14T07:51:43;27.80;75.60
4896;DHT22;2463;49.948;8.472;2023-06-14T07:54:11;27.80;75.00
4896;DHT22;2463;49.948;8.472;2023-06-14T07:56:38;28.00;77.60
4896;DHT22;2463;49.948;8.472;2023-06-14T07:59:06;28.10;77.10
4896;DHT22;2463;49.948;8.472;2023-06-14T08:01:34;28.10;74.30
4896;DHT22;2463;49.948;8.472;2023-06-14T08:04:01;28.10;74.00
4896;DHT22;2463;49.948;8.472;2023-06-14T08:06:28;28.10;73.80
4896;DHT22;2463;49.948;8.472;2023-06-14T08:08:55;28.10;72.80
4896;DHT22;2463;49.948;8.472;2023-06-14T08:11:21;28.10;75.10
4896;DHT22;2463;49.948;8.472;2023-06-14T08:13:50;28.10;74.30
4896;DHT22;2463;49.948;8.472;2023-06-14T08:16:17;28.10;73.30
4896;DHT22;2463;49.948;8.472;2023-06-14T08:18:44;28.10;72.50
4896;DHT22;2463;49.948;8.472;2023-06-14T08:21:11;28.10;73.70
4896;DHT22;2463;49.948;8.472;2023-06-14T08:23:38;28.20;70.20
4896;DHT22;2463;49.948;8.472;2023-06-14T08:26:04;28.10;71.30
4896;DHT22;2463;49.948;8.472;2023-06-14T08:28:31;28.10;72.00
4896;DHT22;2463;49.948;8.472;2023-06-14T08:30:58;28.10;73.00
4896;DHT22;2463;49.948;8.472;2023-06-14T08:33:24;28.10;72.60
4896;DHT22;2463;49.948;8.472;2023-06-14T08:35:51;28.10;74.70
4896;DHT22;2463;49.948;8.472;2023-06-14T08:38:18;28.20;71.60
4896;DHT22;2463;49.948;8.472;2023-06-14T08:40:48;28.10;72.80
4896;DHT22;2463;49.948;8.472;2023-06-14T08:43:16;28.00;73.00
4896;DHT22;2463;49.948;8.472;2023-06-14T08:45:44;28.10;72.20
4896;DHT22;2463;49.948;8.472;2023-06-14T08:48:13;28.10;71.70
4896;DHT22;2463;49.948;8.472;2023-06-14T08:50:45;28.20;71.60
4896;DHT22;2463;49.948;8.472;2023-06-14T08:53:14;28.20;72.30
4896;DHT22;2463;49.948;8.472;2023-06-14T08:55:46;27.80;73.50
4896;DHT22;2463;49.948;8.472;2023-06-14T08:58:14;27.60;71.00
4896;DHT22;2463;49.948;8.472;2023-06-14T09:00:42;27.80;72.60
4896;DHT22;2463;49.948;8.472;2023-06-14T09:03:09;27.70;72.00
4896;DHT22;2463;49.948;8.472;2023-06-14T09:05:39;27.50;72.90
4896;DHT22;2463;49.948;8.472;2023-06-14T09:08:06;27.50;74.10
4896;DHT22;2463;49.948;8.472;2023-06-14T09:10:33;27.60;72.20
4896;DHT22;2463;49.948;8.472;2023-06-14T09:13:02;27.70;72.00
4896;DHT22;2463;49.948;8.472;2023-06-14T09:15:30;27.60;72.00
4896;DHT22;2463;49.948;8.472;2023-06-14T09:17:57;27.70;71.60
4896;DHT22;2463;49.948;8.472;2023-06-14T09:20:24;27.80;71.30
4896;DHT22;2463;49.948;8.472;2023-06-14T09:22:53;27.60;74.40
4896;DHT22;2463;49.948;8.472;2023-06-14T09:25:20;27.70;71.80
4896;DHT22;2463;49.948;8.472;2023-06-14T09:28:06;27.80;74.80
4896;DHT22;2463;49.948;8.472;2023-06-14T09:30:33;28.00;72.70
4896;DHT22;2463;49.948;8.472;2023-06-14T09:33:00;28.20;72.80
4896;DHT22;2463;49.948;8.472;2023-06-14T09:35:27;28.20;72.30
4896;DHT22;2463;49.948;8.472;2023-06-14T09:37:57;28.20;72.70
4896;DHT22;2463;49.948;8.472;2023-06-14T09:40:24;28.40;72.90
4896;DHT22;2463;49.948;8.472;2023-06-14T09:42:52;28.30;71.30
4896;DHT22;2463;49.948;8.472;2023-06-14T09:45:20;27.90;73.00
4896;DHT22;2463;49.948;8.472;2023-06-14T09:47:49;27.70;75.00
4896;DHT22;2463;49.948;8.472;2023-06-14T09:50:32;27.70;73.80
4896;DHT22;2463;49.948;8.472;2023-06-14T09:53:09;27.60;73.20
4896;DHT22;2463;49.948;8.472;2023-06-14T09:55:37;27.50;72.10
4896;DHT22;2463;49.948;8.472;2023-06-14T09:58:07;27.40;74.10
4896;DHT22;2463;49.948;8.472;2023-06-14T10:00:35;27.50;73.50
4896;DHT22;2463;49.948;8.472;2023-06-14T10:03:12;27.00;73.80
4896;DHT22;2463;49.948;8.472;2023-06-14T10:05:45;27.00;73.00
4896;DHT22;2463;49.948;8.472;2023-06-14T10:08:17;27.00;74.80
4896;DHT22;2463;49.948;8.472;2023-06-14T10:10:44;26.90;73.80
4896;DHT22;2463;49.948;8.472;2023-06-14T10:13:12;26.80;73.70
4896;DHT22;2463;49.948;8.472;2023-06-14T10:15:45;27.10;73.30
4896;DHT22;2463;49.948;8.472;2023-06-14T10:21:04;27.60;75.40
4896;DHT22;2463;49.948;8.472;2023-06-14T10:23:37;27.90;75.60
4896;DHT22;2463;49.948;8.472;2023-06-14T10:26:05;27.80;70.60
4896;DHT22;2463;49.948;8.472;2023-06-14T10:28:31;27.80;68.60
4896;DHT22;2463;49.948;8.472;2023-06-14T10:31:12;28.10;69.50
4896;DHT22;2463;49.948;8.472;2023-06-14T10:33:50;28.40;71.60
4896;DHT22;2463;49.948;8.472;2023-06-14T10:36:29;28.30;68.60
4896;DHT22;2463;49.948;8.472;2023-06-14T10:39:05;28.30;68.70
4896;DHT22;2463;49.948;8.472;2023-06-14T10:41:36;28.60;67.90
4896;DHT22;2463;49.948;8.472;2023-06-14T10:46:54;28.40;67.20
4896;DHT22;2463;49.948;8.472;2023-06-14T10:49:42;28.20;67.20
4896;DHT22;2463;49.948;8.472;2023-06-14T10:52:10;28.20;69.80
4896;DHT22;2463;49.948;8.472;2023-06-14T10:57:33;28.40;67.60
4896;DHT22;2463;49.948;8.472;2023-06-14T11:00:21;28.60;67.80
4896;DHT22;2463;49.948;8.472;2023-06-14T11:05:51;29.10;65.40
4896;DHT22;2463;49.948;8.472;2023-06-14T11:08:39;28.50;66.10
4896;DHT22;2463;49.948;8.472;2023-06-14T11:11:10;28.00;68.50
4896;DHT22;2463;49.948;8.472;2023-06-14T11:13:41;27.90;68.80
4896;DHT22;2463;49.948;8.472;2023-06-14T11:16:15;28.40;67.80
4896;DHT22;2463;49.948;8.472;2023-06-14T11:18:44;28.90;67.30
4896;DHT22;2463;49.948;8.472;2023-06-14T11:21:15;29.30;68.40
4896;DHT22;2463;49.948;8.472;2023-06-14T11:23:48;29.30;67.10
4896;DHT22;2463;49.948;8.472;2023-06-14T11:26:15;28.90;66.40
4896;DHT22;2463;49.948;8.472;2023-06-14T11:28:42;28.40;67.30
4896;DHT22;2463;49.948;8.472;2023-06-14T11:31:09;28.00;70.50
4896;DHT22;2463;49.948;8.472;2023-06-14T11:33:36;27.80;70.20
4896;DHT22;2463;49.948;8.472;2023-06-14T11:36:03;27.60;68.90
4896;DHT22;2463;49.948;8.472;2023-06-14T11:38:35;27.50;68.00
4896;DHT22;2463;49.948;8.472;2023-06-14T11:41:02;27.50;67.80
4896;DHT22;2463;49.948;8.472;2023-06-14T11:43:29;27.50;68.90
4896;DHT22;2463;49.948;8.472;2023-06-14T11:45:58;27.30;71.10
4896;DHT22;2463;49.948;8.472;2023-06-14T11:48:41;27.10;71.20
4896;DHT22;2463;49.948;8.472;2023-06-14T11:51:08;27.00;70.30
4896;DHT22;2463;49.948;8.472;2023-06-14T11:53:35;27.00;70.90
4896;DHT22;2463;49.948;8.472;2023-06-14T11:56:03;26.90;68.10
4896;DHT22;2463;49.948;8.472;2023-06-14T11:58:30;26.90;68.70
4896;DHT22;2463;49.948;8.472;2023-06-14T12:00:57;27.00;71.10
4896;DHT22;2463;49.948;8.472;2023-06-14T12:03:28;26.90;72.50
4896;DHT22;2463;49.948;8.472;2023-06-14T12:06:05;27.30;72.50
4896;DHT22;2463;49.948;8.472;2023-06-14T12:08:36;27.90;73.80
4896;DHT22;2463;49.948;8.472;2023-06-14T12:11:13;28.30;71.00
4896;DHT22;2463;49.948;8.472;2023-06-14T12:13:44;28.50;68.90
4896;DHT22;2463;49.948;8.472;2023-06-14T12:16:11;28.50;69.90
4896;DHT22;2463;49.948;8.472;2023-06-14T12:18:40;28.50;70.60
4896;DHT22;2463;49.948;8.472;2023-06-14T12:21:09;28.40;67.90
4896;DHT22;2463;49.948;8.472;2023-06-14T12:23:43;28.30;69.10
4896;DHT22;2463;49.948;8.472;2023-06-14T12:26:13;28.20;68.90
4896;DHT22;2463;49.948;8.472;2023-06-14T12:28:41;28.00;71.30
4896;DHT22;2463;49.948;8.472;2023-06-14T12:31:09;27.60;67.10
4896;DHT22;2463;49.948;8.472;2023-06-14T12:33:36;27.40;69.10
4896;DHT22;2463;49.948;8.472;2023-06-14T12:36:04;27.40;70.60
4896;DHT22;2463;49.948;8.472;2023-06-14T12:38:33;27.50;70.10
4896;DHT22;2463;49.948;8.472;2023-06-14T12:41:00;27.50;71.00
4896;DHT22;2463;49.948;8.472;2023-06-14T12:43:27;27.70;70.50
4896;DHT22;2463;49.948;8.472;2023-06-14T12:45:54;27.80;68.70
4896;DHT22;2463;49.948;8.472;2023-06-14T12:48:22;28.00;68.20
4896;DHT22;2463;49.948;8.472;2023-06-14T12:50:49;27.80;68.00
4896;DHT22;2463;49.948;8.472;2023-06-14T12:53:15;27.60;69.00
4896;DHT22;2463;49.948;8.472;2023-06-14T12:55:42;27.10;70.00
4896;DHT22;2463;49.948;8.472;2023-06-14T12:58:09;26.80;69.80
4896;DHT22;2463;49.948;8.472;2023-06-14T13:00:36;26.70;69.90
4896;DHT22;2463;49.948;8.472;2023-06-14T13:03:03;26.80;71.30
4896;DHT22;2463;49.948;8.472;2023-06-14T13:05:30;27.20;72.90
4896;DHT22;2463;49.948;8.472;2023-06-14T13:08:00;27.60;71.90
4896;DHT22;2463;49.948;8.472;2023-06-14T13:10:27;27.60;69.70
4896;DHT22;2463;49.948;8.472;2023-06-14T13:12:54;27.50;68.30
4896;DHT22;2463;49.948;8.472;2023-06-14T13:15:21;27.30;69.50
4896;DHT22;2463;49.948;8.472;2023-06-14T13:17:48;27.00;70.00
4896;DHT22;2463;49.948;8.472;2023-06-14T13:20:15;26.90;70.30
4896;DHT22;2463;49.948;8.472;2023-06-14T13:22:46;26.70;70.40
4896;DHT22;2463;49.948;8.472;2023-06-14T13:25:13;26.50;70.10
4896;DHT22;2463;49.948;8.472;2023-06-14T13:27:39;26.50;70.30
4896;DHT22;2463;49.948;8.472;2023-06-14T13:30:07;26.70;72.80
4896;DHT22;2463;49.948;8.472;2023-06-14T13:32:34;26.80;72.50
4896;DHT22;2463;49.948;8.472;2023-06-14T13:35:00;27.10;70.30
4896;DHT22;2463;49.948;8.472;2023-06-14T13:37:28;27.40;70.60
4896;DHT22;2463;49.948;8.472;2023-06-14T13:39:54;27.80;69.60
4896;DHT22;2463;49.948;8.472;2023-06-14T13:42:21;28.00;68.40
4896;DHT22;2463;49.948;8.472;2023-06-14T13:44:49;28.20;69.50
4896;DHT22;2463;49.948;8.472;2023-06-14T13:47:18;28.50;67.50
4896;DHT22;2463;49.948;8.472;2023-06-14T13:49:44;28.70;68.40
4896;DHT22;2463;49.948;8.472;2023-06-14T13:52:11;28.60;67.10
4896;DHT22;2463;49.948;8.472;2023-06-14T13:54:40;28.30;67.10
4896;DHT22;2463;49.948;8.472;2023-06-14T13:57:06;27.90;65.20
4896;DHT22;2463;49.948;8.472;2023-06-14T13:59:34;27.60;67.20
4896;DHT22;2463;49.948;8.472;2023-06-14T14:02:01;27.30;67.60
4896;DHT22;2463;49.948;8.472;2023-06-14T14:04:28;27.00;69.70
4896;DHT22;2463;49.948;8.472;2023-06-14T14:06:55;27.00;69.10
4896;DHT22;2463;49.948;8.472;2023-06-14T14:09:22;27.00;70.70
4896;DHT22;2463;49.948;8.472;2023-06-14T14:11:48;26.90;70.40
4896;DHT22;2463;49.948;8.472;2023-06-14T14:14:15;26.90;70.00
4896;DHT22;2463;49.948;8.472;2023-06-14T14:16:42;27.10;67.40
4896;DHT22;2463;49.948;8.472;2023-06-14T14:19:08;27.60;65.00
4896;DHT22;2463;49.948;8.472;2023-06-14T14:21:36;27.90;66.60
4896;DHT22;2463;49.948;8.472;2023-06-14T14:24:03;28.00;67.60
4896;DHT22;2463;49.948;8.472;2023-06-14T14:26:29;28.30;62.10
4896;DHT22;2463;49.948;8.472;2023-06-14T14:28:56;28.50;64.10
4896;DHT22;2463;49.948;8.472;2023-06-14T14:31:23;28.70;65.20
4896;DHT22;2463;49.948;8.472;2023-06-14T14:33:50;28.90;63.80
4896;DHT22;2463;49.948;8.472;2023-06-14T14:36:17;28.70;63.60
4896;DHT22;2463;49.948;8.472;2023-06-14T14:38:43;28.70;64.40
4896;DHT22;2463;49.948;8.472;2023-06-14T14:41:10;28.80;64.90
4896;DHT22;2463;49.948;8.472;2023-06-14T14:43:37;28.20;61.70
4896;DHT22;2463;49.948;8.472;2023-06-14T14:46:03;28.10;61.40
4896;DHT22;2463;49.948;8.472;2023-06-14T14:48:30;27.90;62.50
4896;DHT22;2463;49.948;8.472;2023-06-14T14:50:57;27.80;64.50
4896;DHT22;2463;49.948;8.472;2023-06-14T14:53:24;27.80;64.70
4896;DHT22;2463;49.948;8.472;2023-06-14T14:55:51;27.90;64.80
4896;DHT22;2463;49.948;8.472;2023-06-14T14:58:17;27.80;64.90
4896;DHT22;2463;49.948;8.472;2023-06-14T15:00:45;27.70;65.80
4896;DHT22;2463;49.948;8.472;2023-06-14T15:03:12;27.70;66.00
4896;DHT22;2463;49.948;8.472;2023-06-14T15:05:39;27.80;66.30
4896;DHT22;2463;49.948;8.472;2023-06-14T15:08:06;27.70;66.60
4896;DHT22;2463;49.948;8.472;2023-06-14T15:10:43;27.50;66.20
4896;DHT22;2463;49.948;8.472;2023-06-14T15:13:10;27.10;67.30
4896;DHT22;2463;49.948;8.472;2023-06-14T15:15:37;27.10;68.50
4896;DHT22;2463;49.948;8.472;2023-06-14T15:18:04;27.20;63.50
4896;DHT22;2463;49.948;8.472;2023-06-14T15:20:31;27.30;64.80
4896;DHT22;2463;49.948;8.472;2023-06-14T15:22:58;27.40;64.50
4896;DHT22;2463;49.948;8.472;2023-06-14T15:25:29;27.60;65.50
4896;DHT22;2463;49.948;8.472;2023-06-14T15:27:56;27.90;64.40
4896;DHT22;2463;49.948;8.472;2023-06-14T15:30:23;27.90;66.80
4896;DHT22;2463;49.948;8.472;2023-06-14T15:32:50;27.90;65.70
4896;DHT22;2463;49.948;8.472;2023-06-14T15:35:17;27.80;65.40
4896;DHT22;2463;49.948;8.472;2023-06-14T15:37:48;27.90;64.70
4896;DHT22;2463;49.948;8.472;2023-06-14T15:40:15;27.70;65.30
4896;DHT22;2463;49.948;8.472;2023-06-14T15:42:43;27.50;67.40
4896;DHT22;2463;49.948;8.472;2023-06-14T15:45:10;27.30;67.90
4896;DHT22;2463;49.948;8.472;2023-06-14T15:47:37;27.00;68.50
4896;DHT22;2463;49.948;8.472;2023-06-14T15:50:05;26.80;70.40
4896;DHT22;2463;49.948;8.472;2023-06-14T15:52:34;26.50;71.10
4896;DHT22;2463;49.948;8.472;2023-06-14T15:55:01;26.30;70.60
4896;DHT22;2463;49.948;8.472;2023-06-14T15:57:30;26.20;71.50
4896;DHT22;2463;49.948;8.472;2023-06-14T15:59:57;26.10;71.80
4896;DHT22;2463;49.948;8.472;2023-06-14T16:02:23;26.20;70.40
4896;DHT22;2463;49.948;8.472;2023-06-14T16:04:50;26.20;70.70
4896;DHT22;2463;49.948;8.472;2023-06-14T16:07:18;26.40;71.90
4896;DHT22;2463;49.948;8.472;2023-06-14T16:09:45;26.40;70.40
4896;DHT22;2463;49.948;8.472;2023-06-14T16:12:12;26.40;70.00
4896;DHT22;2463;49.948;8.472;2023-06-14T16:14:39;26.40;70.10
4896;DHT22;2463;49.948;8.472;2023-06-14T16:17:06;26.40;69.60
4896;DHT22;2463;49.948;8.472;2023-06-14T16:19:33;24.40;68.50
4896;DHT22;2463;49.948;8.472;2023-06-14T16:22:00;26.40;68.50